sensor_id;sensor_type;location;lat;lon;timestamp;P1;durP1;ratioP1;P2;durP2;ratioP2
75061;SDS011;63641;46.526;24.612;2023-02-15T00:01:59;18.80;;;14.27;;
75061;SDS011;63641;46.526;24.612;2023-02-15T00:04:27;19.92;;;14.23;;
75061;SDS011;63641;46.526;24.612;2023-02-15T00:07:16;19.52;;;14.52;;
75061;SDS011;63641;46.526;24.612;2023-02-15T00:09:45;20.15;;;13.93;;
75061;SDS011;63641;46.526;24.612;2023-02-15T00:12:13;18.90;;;14.25;;
75061;SDS011;63641;46.526;24.612;2023-02-15T00:14:41;18.80;;;13.05;;
75061;SDS011;63641;46.526;24.612;2023-02-15T00:17:08;18.73;;;14.02;;
75061;SDS011;63641;46.526;24.612;2023-02-15T00:19:35;19.15;;;13.50;;
75061;SDS011;63641;46.526;24.612;2023-02-15T00:22:02;19.08;;;13.20;;
75061;SDS011;63641;46.526;24.612;2023-02-15T00:24:28;20.92;;;13.95;;
75061;SDS011;63641;46.526;24.612;2023-02-15T00:26:55;18.27;;;14.00;;
75061;SDS011;63641;46.526;24.612;2023-02-15T00:29:22;20.27;;;15.15;;
75061;SDS011;63641;46.526;24.612;2023-02-15T00:31:49;20.23;;;13.85;;
75061;SDS011;63641;46.526;24.612;2023-02-15T00:34:20;21.40;;;14.32;;
75061;SDS011;63641;46.526;24.612;2023-02-15T00:36:49;19.13;;;13.70;;
75061;SDS011;63641;46.526;24.612;2023-02-15T00:39:16;21.60;;;14.40;;
75061;SDS011;63641;46.526;24.612;2023-02-15T00:41:57;19.85;;;13.68;;
75061;SDS011;63641;46.526;24.612;2023-02-15T00:44:24;18.90;;;13.57;;
75061;SDS011;63641;46.526;24.612;2023-02-15T00:46:51;18.63;;;14.25;;
75061;SDS011;63641;46.526;24.612;2023-02-15T00:49:17;18.23;;;13.43;;
75061;SDS011;63641;46.526;24.612;2023-02-15T00:51:44;17.33;;;13.00;;
75061;SDS011;63641;46.526;24.612;2023-02-15T00:54:11;19.55;;;12.93;;
75061;SDS011;63641;46.526;24.612;2023-02-15T00:56:37;19.08;;;12.93;;
75061;SDS011;63641;46.526;24.612;2023-02-15T00:59:04;18.90;;;14.35;;
75061;SDS011;63641;46.526;24.612;2023-02-15T01:01:31;17.40;;;12.90;;
75061;SDS011;63641;46.526;24.612;2023-02-15T01:03:58;20.85;;;14.15;;
75061;SDS011;63641;46.526;24.612;2023-02-15T01:06:25;17.88;;;12.88;;
75061;SDS011;63641;46.526;24.612;2023-02-15T01:08:52;19.15;;;13.20;;
75061;SDS011;63641;46.526;24.612;2023-02-15T01:11:19;18.20;;;13.52;;
75061;SDS011;63641;46.526;24.612;2023-02-15T01:13:52;18.92;;;13.07;;
75061;SDS011;63641;46.526;24.612;2023-02-15T01:16:22;20.13;;;14.05;;
75061;SDS011;63641;46.526;24.612;2023-02-15T01:18:50;16.27;;;12.93;;
75061;SDS011;63641;46.526;24.612;2023-02-15T01:21:20;17.75;;;13.63;;
75061;SDS011;63641;46.526;24.612;2023-02-15T01:23:49;18.48;;;13.13;;
75061;SDS011;63641;46.526;24.612;2023-02-15T01:26:15;15.77;;;12.55;;
75061;SDS011;63641;46.526;24.612;2023-02-15T01:28:43;16.90;;;13.35;;
75061;SDS011;63641;46.526;24.612;2023-02-15T01:31:17;16.45;;;12.30;;
75061;SDS011;63641;46.526;24.612;2023-02-15T01:33:46;19.08;;;12.70;;
75061;SDS011;63641;46.526;24.612;2023-02-15T01:36:13;18.15;;;14.23;;
75061;SDS011;63641;46.526;24.612;2023-02-15T01:38:40;16.45;;;13.55;;
75061;SDS011;63641;46.526;24.612;2023-02-15T01:41:07;18.95;;;13.00;;
75061;SDS011;63641;46.526;24.612;2023-02-15T01:43:53;20.65;;;13.27;;
75061;SDS011;63641;46.526;24.612;2023-02-15T01:46:24;19.35;;;13.48;;
75061;SDS011;63641;46.526;24.612;2023-02-15T01:49:11;19.38;;;13.20;;
75061;SDS011;63641;46.526;24.612;2023-02-15T01:51:41;18.98;;;13.77;;
75061;SDS011;63641;46.526;24.612;2023-02-15T01:54:15;18.58;;;12.63;;
75061;SDS011;63641;46.526;24.612;2023-02-15T01:56:51;22.08;;;13.75;;
75061;SDS011;63641;46.526;24.612;2023-02-15T01:59:21;17.40;;;13.35;;
75061;SDS011;63641;46.526;24.612;2023-02-15T02:01:51;19.60;;;13.43;;
75061;SDS011;63641;46.526;24.612;2023-02-15T02:04:37;16.80;;;12.43;;
75061;SDS011;63641;46.526;24.612;2023-02-15T02:07:08;17.95;;;12.00;;
75061;SDS011;63641;46.526;24.612;2023-02-15T02:09:38;20.55;;;14.73;;
75061;SDS011;63641;46.526;24.612;2023-02-15T02:12:05;16.35;;;12.65;;
75061;SDS011;63641;46.526;24.612;2023-02-15T02:14:33;21.98;;;13.75;;
75061;SDS011;63641;46.526;24.612;2023-02-15T02:17:07;19.25;;;13.20;;
75061;SDS011;63641;46.526;24.612;2023-02-15T02:36:18;19.67;;;14.30;;
75061;SDS011;63641;46.526;24.612;2023-02-15T02:47:15;18.48;;;12.80;;
75061;SDS011;63641;46.526;24.612;2023-02-15T02:50:04;16.33;;;12.00;;
75061;SDS011;63641;46.526;24.612;2023-02-15T02:57:40;17.65;;;13.57;;
75061;SDS011;63641;46.526;24.612;2023-02-15T03:00:15;20.27;;;13.57;;
75061;SDS011;63641;46.526;24.612;2023-02-15T03:02:45;20.50;;;13.45;;
75061;SDS011;63641;46.526;24.612;2023-02-15T03:05:16;21.08;;;13.75;;
75061;SDS011;63641;46.526;24.612;2023-02-15T03:07:48;19.00;;;13.85;;
75061;SDS011;63641;46.526;24.612;2023-02-15T03:10:18;19.98;;;12.95;;
75061;SDS011;63641;46.526;24.612;2023-02-15T03:12:48;19.98;;;13.75;;
75061;SDS011;63641;46.526;24.612;2023-02-15T03:15:18;20.02;;;14.25;;
75061;SDS011;63641;46.526;24.612;2023-02-15T03:17:48;17.67;;;12.57;;
75061;SDS011;63641;46.526;24.612;2023-02-15T03:22:53;17.67;;;12.60;;
75061;SDS011;63641;46.526;24.612;2023-02-15T03:25:29;18.10;;;13.07;;
75061;SDS011;63641;46.526;24.612;2023-02-15T03:28:01;21.80;;;13.90;;
75061;SDS011;63641;46.526;24.612;2023-02-15T03:30:32;19.05;;;14.40;;
75061;SDS011;63641;46.526;24.612;2023-02-15T03:33:01;20.00;;;14.32;;
75061;SDS011;63641;46.526;24.612;2023-02-15T03:35:33;20.38;;;13.82;;
75061;SDS011;63641;46.526;24.612;2023-02-15T03:38:10;17.80;;;13.43;;
75061;SDS011;63641;46.526;24.612;2023-02-15T03:40:44;20.03;;;13.13;;
75061;SDS011;63641;46.526;24.612;2023-02-15T03:46:24;18.95;;;12.73;;
75061;SDS011;63641;46.526;24.612;2023-02-15T03:49:14;18.23;;;12.52;;
75061;SDS011;63641;46.526;24.612;2023-02-15T03:51:46;19.17;;;13.50;;
75061;SDS011;63641;46.526;24.612;2023-02-15T03:54:22;20.73;;;13.10;;
75061;SDS011;63641;46.526;24.612;2023-02-15T03:57:25;17.13;;;13.00;;
75061;SDS011;63641;46.526;24.612;2023-02-15T04:00:22;17.65;;;12.65;;
75061;SDS011;63641;46.526;24.612;2023-02-15T04:05:43;18.00;;;12.88;;
75061;SDS011;63641;46.526;24.612;2023-02-15T04:08:11;16.77;;;12.93;;
75061;SDS011;63641;46.526;24.612;2023-02-15T04:10:39;19.70;;;13.20;;
75061;SDS011;63641;46.526;24.612;2023-02-15T04:13:23;19.73;;;13.32;;
75061;SDS011;63641;46.526;24.612;2023-02-15T04:15:59;19.75;;;14.05;;
75061;SDS011;63641;46.526;24.612;2023-02-15T04:18:31;21.80;;;14.75;;
75061;SDS011;63641;46.526;24.612;2023-02-15T04:21:18;20.15;;;15.40;;
75061;SDS011;63641;46.526;24.612;2023-02-15T04:24:04;19.98;;;14.20;;
75061;SDS011;63641;46.526;24.612;2023-02-15T04:26:49;21.67;;;13.85;;
75061;SDS011;63641;46.526;24.612;2023-02-15T04:29:19;20.58;;;14.20;;
75061;SDS011;63641;46.526;24.612;2023-02-15T04:31:47;22.73;;;15.25;;
75061;SDS011;63641;46.526;24.612;2023-02-15T04:34:14;21.80;;;14.45;;
75061;SDS011;63641;46.526;24.612;2023-02-15T04:36:42;21.50;;;14.30;;
75061;SDS011;63641;46.526;24.612;2023-02-15T04:39:09;23.58;;;15.52;;
75061;SDS011;63641;46.526;24.612;2023-02-15T04:41:39;21.17;;;14.73;;
75061;SDS011;63641;46.526;24.612;2023-02-15T04:44:06;19.98;;;15.68;;
75061;SDS011;63641;46.526;24.612;2023-02-15T04:46:33;22.60;;;15.10;;
75061;SDS011;63641;46.526;24.612;2023-02-15T04:48:59;17.67;;;13.48;;
75061;SDS011;63641;46.526;24.612;2023-02-15T04:51:26;18.77;;;13.65;;
75061;SDS011;63641;46.526;24.612;2023-02-15T04:53:53;20.00;;;13.95;;
75061;SDS011;63641;46.526;24.612;2023-02-15T04:56:20;19.20;;;13.10;;
75061;SDS011;63641;46.526;24.612;2023-02-15T04:58:47;21.85;;;13.07;;
75061;SDS011;63641;46.526;24.612;2023-02-15T05:01:14;19.30;;;13.45;;
75061;SDS011;63641;46.526;24.612;2023-02-15T05:03:40;20.05;;;13.32;;
75061;SDS011;63641;46.526;24.612;2023-02-15T05:06:07;18.55;;;12.73;;
75061;SDS011;63641;46.526;24.612;2023-02-15T05:08:34;17.63;;;13.40;;
75061;SDS011;63641;46.526;24.612;2023-02-15T05:11:00;22.05;;;14.23;;
75061;SDS011;63641;46.526;24.612;2023-02-15T05:13:28;21.88;;;14.07;;
75061;SDS011;63641;46.526;24.612;2023-02-15T05:15:55;20.10;;;13.40;;
75061;SDS011;63641;46.526;24.612;2023-02-15T05:18:22;18.17;;;14.13;;
75061;SDS011;63641;46.526;24.612;2023-02-15T05:20:49;18.92;;;13.95;;
75061;SDS011;63641;46.526;24.612;2023-02-15T05:23:15;19.98;;;13.38;;
75061;SDS011;63641;46.526;24.612;2023-02-15T05:25:46;18.08;;;13.10;;
75061;SDS011;63641;46.526;24.612;2023-02-15T05:28:35;20.90;;;14.57;;
75061;SDS011;63641;46.526;24.612;2023-02-15T05:33:33;16.98;;;13.85;;
75061;SDS011;63641;46.526;24.612;2023-02-15T05:36:00;19.55;;;12.88;;
75061;SDS011;63641;46.526;24.612;2023-02-15T05:38:28;18.75;;;12.95;;
75061;SDS011;63641;46.526;24.612;2023-02-15T05:40:55;20.42;;;14.23;;
75061;SDS011;63641;46.526;24.612;2023-02-15T05:43:22;21.45;;;14.80;;
75061;SDS011;63641;46.526;24.612;2023-02-15T05:45:51;20.00;;;16.08;;
75061;SDS011;63641;46.526;24.612;2023-02-15T05:48:19;20.75;;;15.38;;
75061;SDS011;63641;46.526;24.612;2023-02-15T05:50:56;20.10;;;14.05;;
75061;SDS011;63641;46.526;24.612;2023-02-15T05:53:27;19.48;;;13.32;;
75061;SDS011;63641;46.526;24.612;2023-02-15T05:55:55;19.98;;;14.23;;
75061;SDS011;63641;46.526;24.612;2023-02-15T05:58:26;18.33;;;12.50;;
75061;SDS011;63641;46.526;24.612;2023-02-15T06:00:54;16.17;;;12.20;;
75061;SDS011;63641;46.526;24.612;2023-02-15T06:03:22;16.75;;;12.15;;
75061;SDS011;63641;46.526;24.612;2023-02-15T06:05:49;20.27;;;12.55;;
75061;SDS011;63641;46.526;24.612;2023-02-15T06:08:16;22.25;;;14.40;;
75061;SDS011;63641;46.526;24.612;2023-02-15T06:10:47;20.05;;;13.07;;
75061;SDS011;63641;46.526;24.612;2023-02-15T06:13:13;20.17;;;12.73;;
75061;SDS011;63641;46.526;24.612;2023-02-15T06:15:40;18.90;;;14.13;;
75061;SDS011;63641;46.526;24.612;2023-02-15T06:18:07;18.58;;;12.43;;
75061;SDS011;63641;46.526;24.612;2023-02-15T06:20:34;17.33;;;12.00;;
75061;SDS011;63641;46.526;24.612;2023-02-15T06:23:01;17.92;;;12.25;;
75061;SDS011;63641;46.526;24.612;2023-02-15T06:25:27;18.92;;;12.77;;
75061;SDS011;63641;46.526;24.612;2023-02-15T06:27:55;20.38;;;13.80;;
75061;SDS011;63641;46.526;24.612;2023-02-15T06:30:21;17.83;;;12.45;;
75061;SDS011;63641;46.526;24.612;2023-02-15T06:32:48;19.42;;;13.30;;
75061;SDS011;63641;46.526;24.612;2023-02-15T06:35:15;20.58;;;13.82;;
75061;SDS011;63641;46.526;24.612;2023-02-15T06:37:42;21.50;;;14.18;;
75061;SDS011;63641;46.526;24.612;2023-02-15T06:40:12;18.17;;;13.10;;
75061;SDS011;63641;46.526;24.612;2023-02-15T06:42:38;17.45;;;12.88;;
75061;SDS011;63641;46.526;24.612;2023-02-15T06:45:05;17.25;;;12.27;;
75061;SDS011;63641;46.526;24.612;2023-02-15T06:47:33;20.17;;;12.38;;
75061;SDS011;63641;46.526;24.612;2023-02-15T06:50:00;17.67;;;12.55;;
75061;SDS011;63641;46.526;24.612;2023-02-15T06:52:27;18.40;;;12.75;;
75061;SDS011;63641;46.526;24.612;2023-02-15T06:54:55;21.30;;;15.23;;
75061;SDS011;63641;46.526;24.612;2023-02-15T06:57:22;19.02;;;13.05;;
75061;SDS011;63641;46.526;24.612;2023-02-15T06:59:49;21.40;;;13.38;;
75061;SDS011;63641;46.526;24.612;2023-02-15T07:02:16;16.63;;;11.88;;
75061;SDS011;63641;46.526;24.612;2023-02-15T07:04:42;21.83;;;14.90;;
75061;SDS011;63641;46.526;24.612;2023-02-15T07:07:10;18.67;;;11.82;;
75061;SDS011;63641;46.526;24.612;2023-02-15T07:09:39;16.10;;;11.63;;
75061;SDS011;63641;46.526;24.612;2023-02-15T07:12:06;17.73;;;12.07;;
75061;SDS011;63641;46.526;24.612;2023-02-15T07:14:52;17.88;;;12.88;;
75061;SDS011;63641;46.526;24.612;2023-02-15T07:17:18;17.02;;;12.52;;
75061;SDS011;63641;46.526;24.612;2023-02-15T07:20:02;16.88;;;12.52;;
75061;SDS011;63641;46.526;24.612;2023-02-15T07:22:35;19.88;;;12.73;;
75061;SDS011;63641;46.526;24.612;2023-02-15T07:25:03;17.30;;;12.48;;
75061;SDS011;63641;46.526;24.612;2023-02-15T07:27:30;15.23;;;11.20;;
75061;SDS011;63641;46.526;24.612;2023-02-15T07:29:58;18.25;;;13.57;;
75061;SDS011;63641;46.526;24.612;2023-02-15T07:32:28;18.38;;;12.73;;
75061;SDS011;63641;46.526;24.612;2023-02-15T07:34:56;19.67;;;13.45;;
75061;SDS011;63641;46.526;24.612;2023-02-15T07:37:24;20.13;;;13.85;;
75061;SDS011;63641;46.526;24.612;2023-02-15T07:39:51;22.50;;;14.25;;
75061;SDS011;63641;46.526;24.612;2023-02-15T07:42:17;19.77;;;13.98;;
75061;SDS011;63641;46.526;24.612;2023-02-15T07:44:46;22.60;;;16.13;;
75061;SDS011;63641;46.526;24.612;2023-02-15T07:47:13;22.25;;;14.30;;
75061;SDS011;63641;46.526;24.612;2023-02-15T07:49:39;21.45;;;14.63;;
75061;SDS011;63641;46.526;24.612;2023-02-15T07:52:06;22.10;;;15.38;;
75061;SDS011;63641;46.526;24.612;2023-02-15T07:54:33;19.92;;;14.00;;
75061;SDS011;63641;46.526;24.612;2023-02-15T07:57:00;18.38;;;13.80;;
75061;SDS011;63641;46.526;24.612;2023-02-15T07:59:28;21.00;;;14.52;;
75061;SDS011;63641;46.526;24.612;2023-02-15T08:01:55;23.27;;;15.77;;
75061;SDS011;63641;46.526;24.612;2023-02-15T08:04:22;19.58;;;14.45;;
75061;SDS011;63641;46.526;24.612;2023-02-15T08:06:51;22.67;;;14.05;;
75061;SDS011;63641;46.526;24.612;2023-02-15T08:09:20;20.05;;;12.75;;
75061;SDS011;63641;46.526;24.612;2023-02-15T08:11:47;21.40;;;13.68;;
75061;SDS011;63641;46.526;24.612;2023-02-15T08:14:21;19.70;;;13.40;;
75061;SDS011;63641;46.526;24.612;2023-02-15T08:16:51;19.40;;;14.38;;
75061;SDS011;63641;46.526;24.612;2023-02-15T08:21:53;21.10;;;14.85;;
75061;SDS011;63641;46.526;24.612;2023-02-15T08:24:24;19.33;;;13.23;;
75061;SDS011;63641;46.526;24.612;2023-02-15T08:26:53;18.42;;;12.52;;
75061;SDS011;63641;46.526;24.612;2023-02-15T08:29:22;18.15;;;12.93;;
75061;SDS011;63641;46.526;24.612;2023-02-15T08:31:55;20.60;;;14.52;;
75061;SDS011;63641;46.526;24.612;2023-02-15T08:34:25;18.30;;;11.52;;
75061;SDS011;63641;46.526;24.612;2023-02-15T08:36:52;20.85;;;12.43;;
75061;SDS011;63641;46.526;24.612;2023-02-15T08:39:18;19.00;;;13.27;;
75061;SDS011;63641;46.526;24.612;2023-02-15T08:41:51;17.50;;;12.63;;
75061;SDS011;63641;46.526;24.612;2023-02-15T08:44:19;19.83;;;13.40;;
75061;SDS011;63641;46.526;24.612;2023-02-15T08:46:46;17.58;;;12.77;;
75061;SDS011;63641;46.526;24.612;2023-02-15T08:49:21;18.38;;;12.80;;
75061;SDS011;63641;46.526;24.612;2023-02-15T08:54:16;15.85;;;12.15;;
75061;SDS011;63641;46.526;24.612;2023-02-15T08:56:45;20.33;;;13.48;;
75061;SDS011;63641;46.526;24.612;2023-02-15T08:59:14;18.38;;;13.45;;
75061;SDS011;63641;46.526;24.612;2023-02-15T09:01:43;22.00;;;14.18;;
75061;SDS011;63641;46.526;24.612;2023-02-15T09:04:10;17.15;;;12.65;;
75061;SDS011;63641;46.526;24.612;2023-02-15T09:06:46;18.02;;;13.23;;
75061;SDS011;63641;46.526;24.612;2023-02-15T09:09:15;17.45;;;13.05;;
75061;SDS011;63641;46.526;24.612;2023-02-15T09:11:44;17.77;;;11.80;;
75061;SDS011;63641;46.526;24.612;2023-02-15T09:14:24;17.60;;;12.00;;
75061;SDS011;63641;46.526;24.612;2023-02-15T09:16:53;19.65;;;13.85;;
75061;SDS011;63641;46.526;24.612;2023-02-15T09:19:26;16.65;;;12.38;;
75061;SDS011;63641;46.526;24.612;2023-02-15T09:22:02;18.90;;;12.52;;
75061;SDS011;63641;46.526;24.612;2023-02-15T09:24:49;17.85;;;13.10;;
75061;SDS011;63641;46.526;24.612;2023-02-15T09:27:16;20.30;;;13.77;;
75061;SDS011;63641;46.526;24.612;2023-02-15T09:29:51;20.52;;;13.35;;
75061;SDS011;63641;46.526;24.612;2023-02-15T09:32:32;19.63;;;12.38;;
75061;SDS011;63641;46.526;24.612;2023-02-15T09:35:05;19.58;;;12.20;;
75061;SDS011;63641;46.526;24.612;2023-02-15T09:37:32;17.02;;;12.32;;
75061;SDS011;63641;46.526;24.612;2023-02-15T09:39:59;18.33;;;12.68;;
75061;SDS011;63641;46.526;24.612;2023-02-15T09:42:48;18.60;;;12.80;;
75061;SDS011;63641;46.526;24.612;2023-02-15T09:48:40;15.77;;;11.95;;
75061;SDS011;63641;46.526;24.612;2023-02-15T09:56:53;17.58;;;12.85;;
75061;SDS011;63641;46.526;24.612;2023-02-15T09:59:40;19.20;;;13.35;;
75061;SDS011;63641;46.526;24.612;2023-02-15T10:11:25;22.33;;;13.75;;
75061;SDS011;63641;46.526;24.612;2023-02-15T10:25:07;23.60;;;15.18;;
75061;SDS011;63641;46.526;24.612;2023-02-15T10:27:54;19.65;;;13.68;;
75061;SDS011;63641;46.526;24.612;2023-02-15T10:33:41;20.15;;;13.48;;
75061;SDS011;63641;46.526;24.612;2023-02-15T10:39:21;19.65;;;13.63;;
75061;SDS011;63641;46.526;24.612;2023-02-15T10:44:50;19.23;;;13.60;;
75061;SDS011;63641;46.526;24.612;2023-02-15T10:56:23;18.13;;;13.23;;
75061;SDS011;63641;46.526;24.612;2023-02-15T11:01:57;17.65;;;12.32;;
75061;SDS011;63641;46.526;24.612;2023-02-15T11:07:21;20.92;;;12.68;;
75061;SDS011;63641;46.526;24.612;2023-02-15T11:09:53;18.30;;;13.05;;
75061;SDS011;63641;46.526;24.612;2023-02-15T11:12:33;21.58;;;13.60;;
75061;SDS011;63641;46.526;24.612;2023-02-15T11:17:55;18.38;;;13.00;;
75061;SDS011;63641;46.526;24.612;2023-02-15T11:23:27;20.15;;;13.00;;
75061;SDS011;63641;46.526;24.612;2023-02-15T11:25:56;20.27;;;13.23;;
75061;SDS011;63641;46.526;24.612;2023-02-15T11:28:37;19.80;;;13.70;;
75061;SDS011;63641;46.526;24.612;2023-02-15T11:31:18;18.38;;;12.73;;
75061;SDS011;63641;46.526;24.612;2023-02-15T11:34:03;16.95;;;12.55;;
75061;SDS011;63641;46.526;24.612;2023-02-15T11:36:44;17.80;;;11.73;;
75061;SDS011;63641;46.526;24.612;2023-02-15T11:39:14;17.35;;;12.70;;
75061;SDS011;63641;46.526;24.612;2023-02-15T11:41:47;18.65;;;12.65;;
75061;SDS011;63641;46.526;24.612;2023-02-15T11:44:31;17.05;;;13.05;;
75061;SDS011;63641;46.526;24.612;2023-02-15T11:46:58;17.63;;;12.45;;
75061;SDS011;63641;46.526;24.612;2023-02-15T11:49:35;19.85;;;14.10;;
75061;SDS011;63641;46.526;24.612;2023-02-15T11:52:02;18.52;;;13.65;;
75061;SDS011;63641;46.526;24.612;2023-02-15T11:54:34;18.42;;;12.02;;
75061;SDS011;63641;46.526;24.612;2023-02-15T11:57:12;18.10;;;12.88;;
75061;SDS011;63641;46.526;24.612;2023-02-15T11:59:47;16.08;;;12.18;;
75061;SDS011;63641;46.526;24.612;2023-02-15T12:02:25;17.15;;;12.30;;
75061;SDS011;63641;46.526;24.612;2023-02-15T12:04:57;19.70;;;12.75;;
75061;SDS011;63641;46.526;24.612;2023-02-15T12:07:37;16.65;;;11.85;;
75061;SDS011;63641;46.526;24.612;2023-02-15T12:13:16;17.42;;;11.63;;
75061;SDS011;63641;46.526;24.612;2023-02-15T12:15:51;18.25;;;11.57;;
75061;SDS011;63641;46.526;24.612;2023-02-15T12:18:38;17.15;;;11.02;;
75061;SDS011;63641;46.526;24.612;2023-02-15T12:21:11;18.58;;;12.48;;
75061;SDS011;63641;46.526;24.612;2023-02-15T12:23:50;19.95;;;12.57;;
75061;SDS011;63641;46.526;24.612;2023-02-15T12:26:29;16.80;;;12.48;;
75061;SDS011;63641;46.526;24.612;2023-02-15T12:29:17;17.50;;;11.77;;
75061;SDS011;63641;46.526;24.612;2023-02-15T12:32:05;16.73;;;12.50;;
75061;SDS011;63641;46.526;24.612;2023-02-15T12:34:42;17.15;;;11.82;;
75061;SDS011;63641;46.526;24.612;2023-02-15T12:37:23;17.27;;;12.60;;
75061;SDS011;63641;46.526;24.612;2023-02-15T12:40:02;16.02;;;11.77;;
75061;SDS011;63641;46.526;24.612;2023-02-15T12:42:44;17.35;;;11.70;;
75061;SDS011;63641;46.526;24.612;2023-02-15T12:50:50;17.60;;;11.65;;
75061;SDS011;63641;46.526;24.612;2023-02-15T12:53:33;16.77;;;12.65;;
75061;SDS011;63641;46.526;24.612;2023-02-15T12:56:10;17.25;;;12.13;;
75061;SDS011;63641;46.526;24.612;2023-02-15T12:58:38;16.20;;;11.70;;
75061;SDS011;63641;46.526;24.612;2023-02-15T13:01:09;19.25;;;12.98;;
75061;SDS011;63641;46.526;24.612;2023-02-15T13:04:01;19.40;;;12.95;;
75061;SDS011;63641;46.526;24.612;2023-02-15T13:06:35;18.90;;;12.85;;
75061;SDS011;63641;46.526;24.612;2023-02-15T13:09:16;15.95;;;11.95;;
75061;SDS011;63641;46.526;24.612;2023-02-15T13:11:47;18.42;;;12.02;;
75061;SDS011;63641;46.526;24.612;2023-02-15T13:14:21;18.85;;;12.23;;
75061;SDS011;63641;46.526;24.612;2023-02-15T13:16:52;24.83;;;16.27;;
75061;SDS011;63641;46.526;24.612;2023-02-15T13:19:52;20.05;;;13.85;;
75061;SDS011;63641;46.526;24.612;2023-02-15T13:22:28;19.20;;;13.07;;
75061;SDS011;63641;46.526;24.612;2023-02-15T13:25:26;18.52;;;13.18;;
75061;SDS011;63641;46.526;24.612;2023-02-15T13:27:57;19.00;;;12.52;;
75061;SDS011;63641;46.526;24.612;2023-02-15T13:30:30;19.50;;;12.70;;
75061;SDS011;63641;46.526;24.612;2023-02-15T13:33:05;17.20;;;12.15;;
75061;SDS011;63641;46.526;24.612;2023-02-15T13:41:14;17.67;;;12.65;;
75061;SDS011;63641;46.526;24.612;2023-02-15T13:43:52;16.58;;;12.32;;
75061;SDS011;63641;46.526;24.612;2023-02-15T13:49:50;15.77;;;11.70;;
75061;SDS011;63641;46.526;24.612;2023-02-15T13:52:25;19.17;;;13.23;;
75061;SDS011;63641;46.526;24.612;2023-02-15T14:11:42;18.70;;;13.13;;
75061;SDS011;63641;46.526;24.612;2023-02-15T14:31:59;14.20;;;11.02;;
75061;SDS011;63641;46.526;24.612;2023-02-15T14:34:48;18.13;;;11.48;;
75061;SDS011;63641;46.526;24.612;2023-02-15T14:37:23;15.63;;;11.80;;
75061;SDS011;63641;46.526;24.612;2023-02-15T14:46:24;16.77;;;11.00;;
75061;SDS011;63641;46.526;24.612;2023-02-15T14:48:55;17.50;;;11.90;;
75061;SDS011;63641;46.526;24.612;2023-02-15T15:02:17;15.50;;;11.77;;
75061;SDS011;63641;46.526;24.612;2023-02-15T15:07:24;17.00;;;11.85;;
75061;SDS011;63641;46.526;24.612;2023-02-15T15:10:04;17.05;;;12.45;;
75061;SDS011;63641;46.526;24.612;2023-02-15T15:12:59;46.22;;;14.90;;
75061;SDS011;63641;46.526;24.612;2023-02-15T15:15:55;17.60;;;11.70;;
75061;SDS011;63641;46.526;24.612;2023-02-15T15:49:17;17.92;;;11.68;;
75061;SDS011;63641;46.526;24.612;2023-02-15T15:51:46;15.57;;;11.45;;
75061;SDS011;63641;46.526;24.612;2023-02-15T15:54:24;16.50;;;10.98;;
75061;SDS011;63641;46.526;24.612;2023-02-15T15:56:56;16.45;;;11.80;;
75061;SDS011;63641;46.526;24.612;2023-02-15T15:59:26;19.83;;;12.53;;
75061;SDS011;63641;46.526;24.612;2023-02-15T16:01:56;16.88;;;10.82;;
75061;SDS011;63641;46.526;24.612;2023-02-15T16:04:32;18.77;;;12.00;;
75061;SDS011;63641;46.526;24.612;2023-02-15T16:10:00;19.58;;;11.98;;
75061;SDS011;63641;46.526;24.612;2023-02-15T16:12:31;20.05;;;12.52;;
75061;SDS011;63641;46.526;24.612;2023-02-15T16:15:04;16.88;;;12.60;;
75061;SDS011;63641;46.526;24.612;2023-02-15T16:17:44;18.00;;;12.57;;
75061;SDS011;63641;46.526;24.612;2023-02-15T16:20:15;19.33;;;12.60;;
75061;SDS011;63641;46.526;24.612;2023-02-15T16:23:04;17.63;;;12.32;;
75061;SDS011;63641;46.526;24.612;2023-02-15T16:28:17;17.70;;;12.48;;
75061;SDS011;63641;46.526;24.612;2023-02-15T16:30:54;16.60;;;11.07;;
75061;SDS011;63641;46.526;24.612;2023-02-15T16:33:34;18.50;;;12.60;;
75061;SDS011;63641;46.526;24.612;2023-02-15T16:36:04;18.60;;;13.43;;
75061;SDS011;63641;46.526;24.612;2023-02-15T16:41:16;17.88;;;13.23;;
75061;SDS011;63641;46.526;24.612;2023-02-15T16:43:47;20.55;;;13.23;;
75061;SDS011;63641;46.526;24.612;2023-02-15T16:46:20;21.38;;;14.65;;
75061;SDS011;63641;46.526;24.612;2023-02-15T16:48:49;20.63;;;13.73;;
75061;SDS011;63641;46.526;24.612;2023-02-15T16:51:18;21.67;;;14.75;;
75061;SDS011;63641;46.526;24.612;2023-02-15T16:53:48;24.15;;;15.27;;
75061;SDS011;63641;46.526;24.612;2023-02-15T16:56:16;22.23;;;15.30;;
75061;SDS011;63641;46.526;24.612;2023-02-15T16:58:50;21.67;;;15.07;;
75061;SDS011;63641;46.526;24.612;2023-02-15T17:01:19;23.80;;;16.35;;
75061;SDS011;63641;46.526;24.612;2023-02-15T17:03:51;19.00;;;14.25;;
75061;SDS011;63641;46.526;24.612;2023-02-15T17:06:36;20.15;;;14.05;;
75061;SDS011;63641;46.526;24.612;2023-02-15T17:09:04;21.92;;;14.80;;
75061;SDS011;63641;46.526;24.612;2023-02-15T17:11:33;20.75;;;13.82;;
75061;SDS011;63641;46.526;24.612;2023-02-15T17:16:44;25.88;;;17.02;;
75061;SDS011;63641;46.526;24.612;2023-02-15T17:19:17;24.73;;;17.25;;
75061;SDS011;63641;46.526;24.612;2023-02-15T17:21:53;22.65;;;16.33;;
75061;SDS011;63641;46.526;24.612;2023-02-15T17:24:25;28.85;;;19.40;;
75061;SDS011;63641;46.526;24.612;2023-02-15T17:27:05;31.48;;;21.88;;
75061;SDS011;63641;46.526;24.612;2023-02-15T17:29:48;32.58;;;21.27;;
75061;SDS011;63641;46.526;24.612;2023-02-15T17:32:21;39.58;;;24.42;;
75061;SDS011;63641;46.526;24.612;2023-02-15T17:40:14;32.73;;;19.40;;
75061;SDS011;63641;46.526;24.612;2023-02-15T17:42:42;30.20;;;20.75;;
75061;SDS011;63641;46.526;24.612;2023-02-15T17:45:09;28.20;;;18.17;;
75061;SDS011;63641;46.526;24.612;2023-02-15T17:47:39;27.40;;;17.65;;
75061;SDS011;63641;46.526;24.612;2023-02-15T17:50:07;31.23;;;19.13;;
75061;SDS011;63641;46.526;24.612;2023-02-15T17:52:41;26.63;;;19.35;;
75061;SDS011;63641;46.526;24.612;2023-02-15T17:55:12;24.58;;;17.30;;
75061;SDS011;63641;46.526;24.612;2023-02-15T17:57:59;25.83;;;17.38;;
75061;SDS011;63641;46.526;24.612;2023-02-15T18:00:28;39.75;;;18.67;;
75061;SDS011;63641;46.526;24.612;2023-02-15T18:03:17;25.08;;;17.83;;
75061;SDS011;63641;46.526;24.612;2023-02-15T18:06:02;30.95;;;17.35;;
75061;SDS011;63641;46.526;24.612;2023-02-15T18:08:48;37.20;;;18.25;;
75061;SDS011;63641;46.526;24.612;2023-02-15T18:11:38;26.33;;;16.63;;
75061;SDS011;63641;46.526;24.612;2023-02-15T18:14:07;24.55;;;17.38;;
75061;SDS011;63641;46.526;24.612;2023-02-15T18:16:39;27.40;;;16.50;;
75061;SDS011;63641;46.526;24.612;2023-02-15T18:19:09;27.17;;;17.80;;
75061;SDS011;63641;46.526;24.612;2023-02-15T18:21:44;27.13;;;17.90;;
75061;SDS011;63641;46.526;24.612;2023-02-15T18:24:16;27.20;;;18.42;;